Weather observations for the past three days for
Northwest Arkansas Regional Airport
Imperial (Metric)
Date Time (cdt) Wind (mph) Vis. (mi.) Weather Sky Cond. Temperature (ºF) Relative Humidity Wind Chill (°F) Heat Index (°F) Pressure Precipitation (in)
Air Dwpt 6 hour altimeter (in) sea level (mb) 1 hr 3 hr 6 hr
Max. Min.
06 14:53 NE 14 10.00 A Few Clouds FEW090 FEW110 95 64 36% 97 29.97 1012.8
06 13:53 W 14 G 24 10.00 Fair CLR 93.9 66 40% 97 29.96 1012.7
06 12:53 Calm 10.00 A Few Clouds FEW075 96.1 64 100 73.9 35% 98 29.97 1013.0
06 11:53 NW 6 10.00 Mostly Cloudy BKN110 98.1 64 33% 101 30 1014.0
06 10:53 Vrbl 5 10.00 Fair CLR 98.1 66 35% 102 30.01 1014.3
06 09:53 Vrbl 6 10.00 Fair CLR 93 68 44% 97 30.02 1014.4
06 08:53 S 5 10.00 Fair CLR 84 66.9 57% 87 30.01 1014.3
06 07:53 Calm 10.00 Fair CLR 77 66.9 71% 79 30 1014.0
06 06:53 S 3 10.00 Fair CLR 73.9 66 84 73.9 76% 29.99 1013.6
06 05:53 S 3 10.00 A Few Clouds FEW090 75.9 64.9 69% 78 29.98 1013.2
06 04:53 SW 7 10.00 A Few Clouds FEW085 75.9 66 72% 77 29.98 1013.0
06 03:53 Calm 10.00 Fair CLR 78.1 64.9 64% 80 29.96 1012.4
06 02:53 S 5 10.00 Fair CLR 78.1 64.9 64% 80 29.96 1012.3
06 01:53 Calm 10.00 Fair CLR 80.1 64.9 60% 82 29.96 1012.4
06 00:53 SW 3 10.00 Fair CLR 82.9 64.9 99 82 55% 85 29.96 1012.5
05 23:53 SW 3 10.00 Fair CLR 82 64.9 56% 84 29.96 1012.4
05 22:53 Calm 10.00 Fair CLR 84.9 64.9 51% 87 29.96 1012.3
05 21:53 S 6 10.00 Mostly Cloudy BKN090 87.1 64 46% 88 29.95 1012.3
05 20:53 S 3 10.00 Fair CLR 91 64 41% 93 29.93 1011.6
05 19:53 E 3 10.00 Fair CLR 95 62.1 34% 96 29.91 1010.9
05 18:53 E 6 10.00 Fair CLR 99 61 102 98.1 29% 100 29.91 1010.9
05 17:53 NE 7 10.00 Fair CLR 100.9 62.1 28% 103 29.91 1010.8
05 16:53 E 3 10.00 Fair CLR 100.9 61 27% 102 29.91 1010.9
05 15:53 S 6 10.00 Fair CLR 100 60.1 27% 101 29.93 1011.5
05 12:53 Vrbl 3 10.00 Overcast BKN070 OVC085 99 66 100 73 34% 103 30 1013.9
05 11:53 SE 6 10.00 Partly Cloudy SCT080 96.1 66 37% 100 30.03 1014.8
05 10:53 W 6 10.00 Fair CLR 93.9 66.9 41% 98 30.03 1015.0
05 09:53 Calm 10.00 Fair CLR 90 66.9 47% 93 30.03 1014.8
05 08:53 S 6 10.00 Fair CLR 84.9 68 57% 88 30.03 1014.9
05 07:53 Calm 10.00 Fair CLR 78.1 69.1 74% 80 30.02 1014.7
05 05:53 Calm 10.00 Fair CLR 75 66.9 76% 76 30 1013.9
05 04:53 Calm 10.00 Fair CLR 73.9 66 76% 29.99 1013.5
05 03:53 SW 3 10.00 Fair CLR 79 66.9 67% 81 29.99 1013.3
05 02:53 SW 5 10.00 Fair CLR 80.1 66.9 64% 82 29.98 1013.2
05 01:53 S 5 10.00 Fair CLR 82 66.9 60% 85 29.99 1013.7
05 00:53 S 5 10.00 Mostly Cloudy SCT075 BKN090 84 66.9 97 84 57% 87 30 1013.7
04 23:53 SE 6 10.00 A Few Clouds FEW080 84 66 55% 86 29.99 1013.6
04 22:53 S 7 10.00 Fair CLR 84.9 66 53% 87 29.99 1013.5
04 21:53 S 6 10.00 Fair CLR 87.1 64.9 48% 89 29.98 1013.3
04 20:53 S 5 10.00 Fair CLR 89.1 64 43% 90 29.95 1012.3
04 19:53 S 6 10.00 Fair CLR 91 63 39% 92 29.94 1011.9
04 18:53 SE 9 10.00 Fair CLR 97 63 100 93.9 33% 99 29.93 1011.7
04 17:53 SE 10 10.00 A Few Clouds FEW080 98.1 64 33% 101 29.93 1011.4
04 16:53 S 8 10.00 Fair CLR 98.1 63 32% 100 29.94 1011.9
04 15:53 S 8 G 18 10.00 Fair CLR 99 63 31% 101 29.95 1012.2
04 14:53 S 10 G 18 10.00 Fair CLR 98.1 64 33% 101 29.97 1013.0
04 13:53 SW 10 G 16 10.00 Fair CLR 97 64.9 35% 100 30 1013.7
04 12:53 W 8 10.00 Fair CLR 95 66 95 72 39% 98 30.02 1014.4
04 11:53 S 13 G 22 10.00 Fair CLR 93 66.9 42% 97 30.04 1015.2
04 10:53 S 9 10.00 Fair CLR 89.1 70 53% 94 30.04 1015.3
04 09:53 Vrbl 6 10.00 Fair CLR 86 70 59% 91 30.04 1015.4
04 08:53 S 6 10.00 Fair CLR 82.9 69.1 63% 87 30.04 1015.5
04 07:53 Calm 10.00 Fair CLR 77 68 74% 79 30.03 1015.1
04 06:53 Calm 10.00 Fair CLR 72 66 80.1 70 82% 30.02 1014.6
04 05:53 Calm 10.00 Fair CLR 73 66 79% 30.01 1014.3
04 04:53 Calm 10.00 Fair CLR 73.9 66 76% 30 1013.9
04 03:53 S 5 10.00 Fair CLR 75.9 66 72% 77 29.99 1013.5
04 02:53 S 5 10.00 Fair CLR 77 66 69% 79 29.99 1013.4
04 01:53 S 3 10.00 Fair CLR 79 66 65% 81 29.99 1013.6
04 00:53 S 5 10.00 Fair CLR 80.1 64.9 95 80.1 60% 82 29.99 1013.5
03 23:53 S 6 10.00 Fair CLR 81 64.9 58% 83 29.98 1013.3
03 22:53 S 5 10.00 Fair CLR 82.9 64.9 55% 85 29.98 1013.2
03 21:53 S 6 10.00 Fair CLR 84.9 64.9 51% 87 29.97 1013.0
03 20:53 S 6 10.00 Fair CLR 87.1 64 46% 88 29.95 1012.2
03 19:53 S 7 10.00 Partly Cloudy SCT070 91 64 41% 93 29.93 1011.6
03 18:53 S 9 10.00 Partly Cloudy SCT070 95 64.9 99 93.9 37% 98 29.92 1011.3
03 17:53 S 12 10.00 Partly Cloudy SCT075 97 64 34% 99 29.92 1011.2
03 16:53 S 10 G 21 10.00 Fair CLR 98.1 64.9 34% 101 29.92 1011.2
03 15:53 S 18 G 26 10.00 A Few Clouds FEW070 98.1 64.9 34% 101 29.93 1011.5
Date Time (cdt) Wind (mph) Vis. (mi.) Weather Sky Cond. Air Dwpt Max. Min. Relative Humidity Wind Chill (°F) Heat Index (°F) altimeter (in) sea level (mb) 1 hr 3 hr 6 hr
6 hour
Temperature (ºF) Pressure Precipitation (in)